CDT,Max TemperatureF,Mean TemperatureF,Min TemperatureF,Max Dew PointF,MeanDew PointF,Min DewpointF,Max Humidity, Mean Humidity, Min Humidity, Max Sea Level PressureIn, Mean Sea Level PressureIn, Min Sea Level PressureIn, Max VisibilityMiles, Mean VisibilityMiles, Min VisibilityMiles, Max Wind SpeedMPH, Mean Wind SpeedMPH, Max Gust SpeedMPH,PrecipitationIn, CloudCover, Events, WindDirDegrees
2012-9-1,,,,,,,,,,,,,,,,,,,,,,
2012-9-2,,,,,,,,,,,,,,,,,,,,,,
2012-9-3,,,,,,,,,,,,,,,,,,,,,,
2012-9-4,,,,,,,,,,,,,,,,,,,,,,
2012-9-5,80,74,66,73,69,64,100,87,74,29.89,29.85,29.81,10,9,4,23,8,32,0.07,1,Thunderstorm,202
2012-9-6,86,75,64,72,66,52,100,78,31,29.94,29.90,29.86,10,10,5,15,6,20,0.00,2,,277
2012-9-7,78,70,62,73,65,61,100,93,83,29.96,29.83,29.70,10,8,2,24,5,41,2.16,3,Thunderstorm,143
2012-9-8,71,63,55,63,54,48,100,74,43,29.89,29.83,29.71,10,10,5,22,11,26,0.01,4,,310
2012-9-9,75,64,53,57,53,-2,94,72,9,30.13,29.98,29.87,10,10,10,14,6,20,0.00,3,,1
2012-9-10,77,62,48,55,52,46,94,57,36,30.23,30.17,30.13,10,10,10,8,3,,0.00,0,,169
2012-9-11,78,64,50,55,54,54,73,49,42,30.24,30.19,30.14,10,10,10,15,7,20,0.00,0,,185
2012-9-12,82,66,51,61,58,55,73,49,42,30.25,30.20,30.17,10,10,10,15,7,21,0.00,1,,192
2012-9-13,80,72,64,61,60,57,61,53,47,30.27,30.23,30.18,10,10,10,15,7,21,0.00,7,,207
2012-9-14,71,60,50,57,51,46,100,74,41,30.33,30.29,30.23,10,10,3,14,8,17,0.25,4,,16
2012-9-15,75,60,46,54,49,45,100,71,36,30.34,30.26,30.17,10,10,9,8,2,,0.00,0,,200
2012-9-16,78,62,46,55,49,45,100,70,32,30.17,30.10,30.02,10,10,5,9,2,,0.00,0,,192
2012-9-17,73,62,51,64,58,48,100,85,65,30.02,29.89,29.73,10,9,4,12,5,,0.06,5,,197
2012-9-18,64,54,42,63,49,34,100,75,36,30.03,29.83,29.68,10,10,5,22,11,29,0.02,5,,324
2012-9-19,69,53,37,45,38,36,100,57,28,30.14,30.07,30.00,10,10,10,21,7,24,0.00,0,,210
2012-9-20,75,63,51,52,45,39,71,54,33,30.01,29.93,29.88,10,10,10,18,11,23,0.00,1,,235
2012-9-21,69,56,44,52,44,37,94,70,31,29.97,29.89,29.76,10,10,8,14,6,18,0.30,3,Thunderstorm,200
2012-9-22,57,49,41,54,42,28,100,77,36,30.17,29.97,29.79,10,7,0,30,8,39,0.03,5,,277
2012-9-23,62,50,37,43,36,32,93,66,34,30.25,30.21,30.16,10,10,10,18,7,23,0.00,1,,304
2012-9-24,68,52,37,41,35,30,93,46,24,30.25,30.09,30.01,10,10,10,16,8,22,0.00,0,,219
2012-9-25,69,60,51,63,52,39,100,78,54,30.00,29.94,29.91,10,8,2,17,8,23,0.38,5,,192
2012-9-26,66,62,57,64,62,55,100,94,88,30.11,30.00,29.91,10,7,0,15,9,21,0.17,6,Thunderstorm,236
2012-9-27,73,63,53,61,56,48,100,83,57,30.16,30.12,30.09,10,8,0,12,6,,0.00,6,,27
2012-9-28,69,61,53,57,54,48,100,83,46,30.12,30.09,30.04,10,6,0,8,5,,0.00,5,,50
2012-9-29,73,60,46,54,46,43,94,70,33,30.11,30.04,29.95,10,9,3,13,4,16,0.00,0,,337
2012-9-30,66,55,44,50,44,41,93,74,40,29.95,29.91,29.88,10,10,7,15,5,20,0.00,0,,52